sensor_id;sensor_type;location;lat;lon;timestamp;P1;durP1;ratioP1;P2;durP2;ratioP2
30647;SDS011;17683;53.360;9.736;2023-03-01T00:02:20;10.18;;;5.80;;
30647;SDS011;17683;53.360;9.736;2023-03-01T00:04:46;13.05;;;6.97;;
30647;SDS011;17683;53.360;9.736;2023-03-01T00:07:12;11.40;;;6.22;;
30647;SDS011;17683;53.360;9.736;2023-03-01T00:09:38;9.48;;;5.95;;
30647;SDS011;17683;53.360;9.736;2023-03-01T00:12:05;10.90;;;5.38;;
30647;SDS011;17683;53.360;9.736;2023-03-01T00:14:31;8.57;;;5.40;;
30647;SDS011;17683;53.360;9.736;2023-03-01T00:16:57;7.70;;;5.30;;
30647;SDS011;17683;53.360;9.736;2023-03-01T00:19:23;13.00;;;5.45;;
30647;SDS011;17683;53.360;9.736;2023-03-01T00:21:49;9.82;;;5.95;;
30647;SDS011;17683;53.360;9.736;2023-03-01T00:24:14;9.25;;;6.00;;
30647;SDS011;17683;53.360;9.736;2023-03-01T00:26:40;12.25;;;5.93;;
30647;SDS011;17683;53.360;9.736;2023-03-01T00:29:06;12.13;;;6.18;;
30647;SDS011;17683;53.360;9.736;2023-03-01T00:31:32;7.45;;;4.78;;
30647;SDS011;17683;53.360;9.736;2023-03-01T00:33:59;9.38;;;5.93;;
30647;SDS011;17683;53.360;9.736;2023-03-01T00:36:28;12.48;;;6.28;;
30647;SDS011;17683;53.360;9.736;2023-03-01T00:38:55;11.05;;;5.70;;
30647;SDS011;17683;53.360;9.736;2023-03-01T00:41:21;9.25;;;6.15;;
30647;SDS011;17683;53.360;9.736;2023-03-01T00:43:48;9.43;;;6.50;;
30647;SDS011;17683;53.360;9.736;2023-03-01T00:46:19;10.05;;;6.10;;
30647;SDS011;17683;53.360;9.736;2023-03-01T00:48:46;9.60;;;5.57;;
30647;SDS011;17683;53.360;9.736;2023-03-01T00:51:13;15.30;;;6.63;;
30647;SDS011;17683;53.360;9.736;2023-03-01T00:53:41;12.23;;;6.30;;
30647;SDS011;17683;53.360;9.736;2023-03-01T00:56:08;13.20;;;7.13;;
30647;SDS011;17683;53.360;9.736;2023-03-01T00:58:35;13.32;;;6.28;;
30647;SDS011;17683;53.360;9.736;2023-03-01T01:01:01;12.52;;;6.50;;
30647;SDS011;17683;53.360;9.736;2023-03-01T01:03:41;9.95;;;5.97;;
30647;SDS011;17683;53.360;9.736;2023-03-01T01:06:14;9.68;;;6.68;;
30647;SDS011;17683;53.360;9.736;2023-03-01T01:08:47;13.32;;;7.30;;
30647;SDS011;17683;53.360;9.736;2023-03-01T01:11:14;11.60;;;7.93;;
30647;SDS011;17683;53.360;9.736;2023-03-01T01:13:40;12.93;;;6.78;;
30647;SDS011;17683;53.360;9.736;2023-03-01T01:16:06;10.77;;;6.55;;
30647;SDS011;17683;53.360;9.736;2023-03-01T01:18:33;14.43;;;6.80;;
30647;SDS011;17683;53.360;9.736;2023-03-01T01:21:03;11.48;;;6.88;;
30647;SDS011;17683;53.360;9.736;2023-03-01T01:23:30;13.32;;;7.70;;
30647;SDS011;17683;53.360;9.736;2023-03-01T01:25:56;14.55;;;6.90;;
30647;SDS011;17683;53.360;9.736;2023-03-01T01:28:21;13.05;;;6.95;;
30647;SDS011;17683;53.360;9.736;2023-03-01T01:30:47;12.13;;;6.70;;
30647;SDS011;17683;53.360;9.736;2023-03-01T01:33:13;12.32;;;6.03;;
30647;SDS011;17683;53.360;9.736;2023-03-01T01:35:38;11.63;;;6.93;;
30647;SDS011;17683;53.360;9.736;2023-03-01T01:38:04;15.70;;;7.65;;
30647;SDS011;17683;53.360;9.736;2023-03-01T01:40:30;15.40;;;7.70;;
30647;SDS011;17683;53.360;9.736;2023-03-01T01:42:55;10.10;;;6.85;;
30647;SDS011;17683;53.360;9.736;2023-03-01T01:47:54;13.70;;;7.40;;
30647;SDS011;17683;53.360;9.736;2023-03-01T01:50:23;13.95;;;7.43;;
30647;SDS011;17683;53.360;9.736;2023-03-01T01:52:50;13.40;;;7.55;;
30647;SDS011;17683;53.360;9.736;2023-03-01T01:55:19;12.13;;;7.25;;
30647;SDS011;17683;53.360;9.736;2023-03-01T01:57:53;13.00;;;7.80;;
30647;SDS011;17683;53.360;9.736;2023-03-01T02:00:23;14.88;;;7.03;;
30647;SDS011;17683;53.360;9.736;2023-03-01T02:02:51;12.35;;;8.15;;
30647;SDS011;17683;53.360;9.736;2023-03-01T02:08:12;18.88;;;8.70;;
30647;SDS011;17683;53.360;9.736;2023-03-01T02:10:40;13.43;;;7.70;;
30647;SDS011;17683;53.360;9.736;2023-03-01T02:13:06;17.45;;;9.13;;
30647;SDS011;17683;53.360;9.736;2023-03-01T02:15:33;14.85;;;7.65;;
30647;SDS011;17683;53.360;9.736;2023-03-01T02:18:01;12.93;;;6.63;;
30647;SDS011;17683;53.360;9.736;2023-03-01T02:20:36;11.63;;;6.60;;
30647;SDS011;17683;53.360;9.736;2023-03-01T02:23:10;18.35;;;7.10;;
30647;SDS011;17683;53.360;9.736;2023-03-01T02:28:08;11.90;;;6.25;;
30647;SDS011;17683;53.360;9.736;2023-03-01T02:30:36;10.98;;;6.72;;
30647;SDS011;17683;53.360;9.736;2023-03-01T02:33:22;10.13;;;5.78;;
30647;SDS011;17683;53.360;9.736;2023-03-01T02:35:48;14.90;;;7.10;;
30647;SDS011;17683;53.360;9.736;2023-03-01T02:38:13;10.25;;;6.72;;
30647;SDS011;17683;53.360;9.736;2023-03-01T02:40:39;9.20;;;6.90;;
30647;SDS011;17683;53.360;9.736;2023-03-01T02:43:08;12.18;;;6.70;;
30647;SDS011;17683;53.360;9.736;2023-03-01T02:45:37;10.18;;;6.35;;
30647;SDS011;17683;53.360;9.736;2023-03-01T02:48:02;8.88;;;5.38;;
30647;SDS011;17683;53.360;9.736;2023-03-01T02:57:53;9.30;;;5.95;;
30647;SDS011;17683;53.360;9.736;2023-03-01T03:00:23;9.77;;;6.10;;
30647;SDS011;17683;53.360;9.736;2023-03-01T03:02:54;10.45;;;5.97;;
30647;SDS011;17683;53.360;9.736;2023-03-01T03:05:29;12.20;;;5.95;;
30647;SDS011;17683;53.360;9.736;2023-03-01T03:07:55;9.80;;;6.57;;
30647;SDS011;17683;53.360;9.736;2023-03-01T03:10:32;12.38;;;6.78;;
30647;SDS011;17683;53.360;9.736;2023-03-01T03:13:05;10.90;;;6.13;;
30647;SDS011;17683;53.360;9.736;2023-03-01T03:15:35;11.20;;;6.35;;
30647;SDS011;17683;53.360;9.736;2023-03-01T03:18:01;11.07;;;6.30;;
30647;SDS011;17683;53.360;9.736;2023-03-01T03:20:29;9.88;;;6.18;;
30647;SDS011;17683;53.360;9.736;2023-03-01T03:22:57;10.57;;;6.35;;
30647;SDS011;17683;53.360;9.736;2023-03-01T03:25:24;9.25;;;5.75;;
30647;SDS011;17683;53.360;9.736;2023-03-01T03:27:51;12.38;;;6.65;;
30647;SDS011;17683;53.360;9.736;2023-03-01T03:30:22;8.15;;;5.55;;
30647;SDS011;17683;53.360;9.736;2023-03-01T03:32:56;9.10;;;5.82;;
30647;SDS011;17683;53.360;9.736;2023-03-01T03:35:24;11.65;;;6.22;;
30647;SDS011;17683;53.360;9.736;2023-03-01T03:37:53;11.82;;;6.68;;
30647;SDS011;17683;53.360;9.736;2023-03-01T03:40:46;10.77;;;6.80;;
30647;SDS011;17683;53.360;9.736;2023-03-01T03:43:14;11.52;;;6.55;;
30647;SDS011;17683;53.360;9.736;2023-03-01T03:45:46;12.23;;;6.22;;
30647;SDS011;17683;53.360;9.736;2023-03-01T03:48:13;10.10;;;5.53;;
30647;SDS011;17683;53.360;9.736;2023-03-01T03:50:40;12.88;;;5.95;;
30647;SDS011;17683;53.360;9.736;2023-03-01T03:53:07;12.85;;;5.97;;
30647;SDS011;17683;53.360;9.736;2023-03-01T03:55:36;8.63;;;5.35;;
30647;SDS011;17683;53.360;9.736;2023-03-01T03:58:04;10.27;;;6.20;;
30647;SDS011;17683;53.360;9.736;2023-03-01T04:00:35;8.98;;;5.50;;
30647;SDS011;17683;53.360;9.736;2023-03-01T04:05:35;11.57;;;5.45;;
30647;SDS011;17683;53.360;9.736;2023-03-01T04:08:02;13.40;;;6.25;;
30647;SDS011;17683;53.360;9.736;2023-03-01T04:10:29;10.68;;;5.65;;
30647;SDS011;17683;53.360;9.736;2023-03-01T04:12:58;11.27;;;5.60;;
30647;SDS011;17683;53.360;9.736;2023-03-01T04:15:24;10.23;;;5.55;;
30647;SDS011;17683;53.360;9.736;2023-03-01T04:17:52;10.77;;;6.22;;
30647;SDS011;17683;53.360;9.736;2023-03-01T04:20:20;8.27;;;5.18;;
30647;SDS011;17683;53.360;9.736;2023-03-01T04:22:58;10.82;;;5.60;;
30647;SDS011;17683;53.360;9.736;2023-03-01T04:25:41;10.18;;;5.30;;
30647;SDS011;17683;53.360;9.736;2023-03-01T04:28:10;9.88;;;5.00;;
30647;SDS011;17683;53.360;9.736;2023-03-01T04:30:37;8.63;;;5.25;;
30647;SDS011;17683;53.360;9.736;2023-03-01T04:33:07;11.40;;;5.78;;
30647;SDS011;17683;53.360;9.736;2023-03-01T04:35:35;11.13;;;5.40;;
30647;SDS011;17683;53.360;9.736;2023-03-01T04:38:02;8.77;;;5.20;;
30647;SDS011;17683;53.360;9.736;2023-03-01T04:40:28;8.23;;;5.30;;
30647;SDS011;17683;53.360;9.736;2023-03-01T04:42:54;8.73;;;5.28;;
30647;SDS011;17683;53.360;9.736;2023-03-01T04:45:20;13.50;;;5.38;;
30647;SDS011;17683;53.360;9.736;2023-03-01T04:47:46;9.98;;;5.90;;
30647;SDS011;17683;53.360;9.736;2023-03-01T04:50:12;11.55;;;5.28;;
30647;SDS011;17683;53.360;9.736;2023-03-01T04:52:40;10.27;;;5.65;;
30647;SDS011;17683;53.360;9.736;2023-03-01T04:55:07;7.03;;;4.63;;
30647;SDS011;17683;53.360;9.736;2023-03-01T04:57:33;8.70;;;4.68;;
30647;SDS011;17683;53.360;9.736;2023-03-01T04:59:59;11.98;;;5.18;;
30647;SDS011;17683;53.360;9.736;2023-03-01T05:02:24;7.60;;;4.97;;
30647;SDS011;17683;53.360;9.736;2023-03-01T05:04:50;8.93;;;5.20;;
30647;SDS011;17683;53.360;9.736;2023-03-01T05:07:16;11.20;;;5.40;;
30647;SDS011;17683;53.360;9.736;2023-03-01T05:09:47;10.30;;;5.00;;
30647;SDS011;17683;53.360;9.736;2023-03-01T05:12:14;9.48;;;5.25;;
30647;SDS011;17683;53.360;9.736;2023-03-01T05:14:40;8.40;;;5.07;;
30647;SDS011;17683;53.360;9.736;2023-03-01T05:17:06;10.27;;;5.10;;
30647;SDS011;17683;53.360;9.736;2023-03-01T05:19:33;8.85;;;4.53;;
30647;SDS011;17683;53.360;9.736;2023-03-01T05:21:59;6.82;;;4.20;;
30647;SDS011;17683;53.360;9.736;2023-03-01T05:24:29;6.88;;;4.15;;
30647;SDS011;17683;53.360;9.736;2023-03-01T05:26:56;8.02;;;4.63;;
30647;SDS011;17683;53.360;9.736;2023-03-01T05:29:23;11.13;;;5.15;;
30647;SDS011;17683;53.360;9.736;2023-03-01T05:31:53;6.57;;;4.38;;
30647;SDS011;17683;53.360;9.736;2023-03-01T05:34:38;9.95;;;5.15;;
30647;SDS011;17683;53.360;9.736;2023-03-01T05:37:04;9.70;;;6.40;;
30647;SDS011;17683;53.360;9.736;2023-03-01T05:39:30;10.35;;;4.40;;
30647;SDS011;17683;53.360;9.736;2023-03-01T05:41:57;7.50;;;4.35;;
30647;SDS011;17683;53.360;9.736;2023-03-01T05:44:24;10.63;;;4.88;;
30647;SDS011;17683;53.360;9.736;2023-03-01T05:46:51;7.55;;;3.88;;
30647;SDS011;17683;53.360;9.736;2023-03-01T05:49:17;11.90;;;4.22;;
30647;SDS011;17683;53.360;9.736;2023-03-01T05:51:46;7.97;;;4.55;;
30647;SDS011;17683;53.360;9.736;2023-03-01T05:54:13;6.90;;;4.10;;
30647;SDS011;17683;53.360;9.736;2023-03-01T05:56:39;9.63;;;4.18;;
30647;SDS011;17683;53.360;9.736;2023-03-01T05:59:04;9.77;;;4.35;;
30647;SDS011;17683;53.360;9.736;2023-03-01T06:01:34;8.70;;;5.38;;
30647;SDS011;17683;53.360;9.736;2023-03-01T06:04:03;7.78;;;3.75;;
30647;SDS011;17683;53.360;9.736;2023-03-01T06:06:29;6.78;;;3.70;;
30647;SDS011;17683;53.360;9.736;2023-03-01T06:08:59;9.45;;;4.07;;
30647;SDS011;17683;53.360;9.736;2023-03-01T06:11:24;8.30;;;4.05;;
30647;SDS011;17683;53.360;9.736;2023-03-01T06:13:50;6.78;;;4.10;;
30647;SDS011;17683;53.360;9.736;2023-03-01T06:16:16;9.05;;;4.80;;
30647;SDS011;17683;53.360;9.736;2023-03-01T06:18:41;5.70;;;4.30;;
30647;SDS011;17683;53.360;9.736;2023-03-01T06:21:07;7.22;;;4.53;;
30647;SDS011;17683;53.360;9.736;2023-03-01T06:23:34;8.45;;;3.70;;
30647;SDS011;17683;53.360;9.736;2023-03-01T06:25:59;7.55;;;4.65;;
30647;SDS011;17683;53.360;9.736;2023-03-01T06:28:26;9.45;;;4.47;;
30647;SDS011;17683;53.360;9.736;2023-03-01T06:30:52;7.88;;;3.80;;
30647;SDS011;17683;53.360;9.736;2023-03-01T06:33:18;7.45;;;3.90;;
30647;SDS011;17683;53.360;9.736;2023-03-01T06:35:49;8.02;;;3.65;;
30647;SDS011;17683;53.360;9.736;2023-03-01T06:38:15;5.20;;;3.95;;
30647;SDS011;17683;53.360;9.736;2023-03-01T06:40:43;7.88;;;3.88;;
30647;SDS011;17683;53.360;9.736;2023-03-01T06:43:10;7.88;;;4.15;;
30647;SDS011;17683;53.360;9.736;2023-03-01T06:45:36;7.97;;;4.22;;
30647;SDS011;17683;53.360;9.736;2023-03-01T06:48:03;9.48;;;4.78;;
30647;SDS011;17683;53.360;9.736;2023-03-01T06:50:29;8.30;;;3.90;;
30647;SDS011;17683;53.360;9.736;2023-03-01T06:52:55;7.93;;;4.00;;
30647;SDS011;17683;53.360;9.736;2023-03-01T06:55:22;9.35;;;4.28;;
30647;SDS011;17683;53.360;9.736;2023-03-01T06:57:47;7.53;;;3.97;;
30647;SDS011;17683;53.360;9.736;2023-03-01T07:00:13;8.55;;;3.55;;
30647;SDS011;17683;53.360;9.736;2023-03-01T07:02:41;6.00;;;3.67;;
30647;SDS011;17683;53.360;9.736;2023-03-01T07:05:06;6.80;;;4.13;;
30647;SDS011;17683;53.360;9.736;2023-03-01T07:07:32;7.63;;;3.83;;
30647;SDS011;17683;53.360;9.736;2023-03-01T07:09:58;7.57;;;4.32;;
30647;SDS011;17683;53.360;9.736;2023-03-01T07:12:23;7.43;;;3.53;;
30647;SDS011;17683;53.360;9.736;2023-03-01T07:14:49;5.70;;;4.25;;
30647;SDS011;17683;53.360;9.736;2023-03-01T07:17:15;7.53;;;3.83;;
30647;SDS011;17683;53.360;9.736;2023-03-01T07:19:40;4.70;;;3.35;;
30647;SDS011;17683;53.360;9.736;2023-03-01T07:22:06;9.18;;;4.05;;
30647;SDS011;17683;53.360;9.736;2023-03-01T07:24:35;7.20;;;4.07;;
30647;SDS011;17683;53.360;9.736;2023-03-01T07:27:00;5.88;;;3.58;;
30647;SDS011;17683;53.360;9.736;2023-03-01T07:29:26;9.15;;;4.53;;
30647;SDS011;17683;53.360;9.736;2023-03-01T07:31:53;6.60;;;3.95;;
30647;SDS011;17683;53.360;9.736;2023-03-01T07:34:19;5.40;;;3.75;;
30647;SDS011;17683;53.360;9.736;2023-03-01T07:36:45;11.52;;;4.93;;
30647;SDS011;17683;53.360;9.736;2023-03-01T07:39:11;10.55;;;4.85;;
30647;SDS011;17683;53.360;9.736;2023-03-01T07:41:36;6.65;;;4.45;;
30647;SDS011;17683;53.360;9.736;2023-03-01T07:44:02;7.88;;;3.80;;
30647;SDS011;17683;53.360;9.736;2023-03-01T07:46:29;8.02;;;4.03;;
30647;SDS011;17683;53.360;9.736;2023-03-01T07:48:54;8.10;;;3.97;;
30647;SDS011;17683;53.360;9.736;2023-03-01T07:51:20;7.70;;;4.45;;
30647;SDS011;17683;53.360;9.736;2023-03-01T07:53:46;4.88;;;4.13;;
30647;SDS011;17683;53.360;9.736;2023-03-01T07:56:13;6.93;;;4.47;;
30647;SDS011;17683;53.360;9.736;2023-03-01T07:58:42;10.70;;;4.72;;
30647;SDS011;17683;53.360;9.736;2023-03-01T08:01:10;9.60;;;4.82;;
30647;SDS011;17683;53.360;9.736;2023-03-01T08:03:37;8.38;;;4.50;;
30647;SDS011;17683;53.360;9.736;2023-03-01T08:06:04;6.55;;;4.50;;
30647;SDS011;17683;53.360;9.736;2023-03-01T08:08:32;7.93;;;4.28;;
30647;SDS011;17683;53.360;9.736;2023-03-01T08:10:59;9.75;;;4.05;;
30647;SDS011;17683;53.360;9.736;2023-03-01T08:13:26;8.65;;;5.20;;
30647;SDS011;17683;53.360;9.736;2023-03-01T08:15:52;9.48;;;4.22;;
30647;SDS011;17683;53.360;9.736;2023-03-01T08:18:19;7.55;;;5.18;;
30647;SDS011;17683;53.360;9.736;2023-03-01T08:20:45;8.98;;;5.78;;
30647;SDS011;17683;53.360;9.736;2023-03-01T08:23:11;7.43;;;4.68;;
30647;SDS011;17683;53.360;9.736;2023-03-01T08:25:37;7.47;;;4.43;;
30647;SDS011;17683;53.360;9.736;2023-03-01T08:28:03;7.93;;;4.68;;
30647;SDS011;17683;53.360;9.736;2023-03-01T08:30:30;13.68;;;4.72;;
30647;SDS011;17683;53.360;9.736;2023-03-01T08:32:56;8.57;;;4.93;;
30647;SDS011;17683;53.360;9.736;2023-03-01T08:35:22;7.55;;;4.20;;
30647;SDS011;17683;53.360;9.736;2023-03-01T08:37:47;11.35;;;5.50;;
30647;SDS011;17683;53.360;9.736;2023-03-01T08:40:13;7.40;;;4.68;;
30647;SDS011;17683;53.360;9.736;2023-03-01T08:42:42;12.35;;;4.85;;
30647;SDS011;17683;53.360;9.736;2023-03-01T08:45:09;7.70;;;5.28;;
30647;SDS011;17683;53.360;9.736;2023-03-01T08:47:35;7.00;;;5.07;;
30647;SDS011;17683;53.360;9.736;2023-03-01T08:50:01;10.98;;;6.47;;
30647;SDS011;17683;53.360;9.736;2023-03-01T08:52:28;10.07;;;5.07;;
30647;SDS011;17683;53.360;9.736;2023-03-01T08:54:55;8.57;;;4.65;;
30647;SDS011;17683;53.360;9.736;2023-03-01T08:57:21;10.07;;;4.80;;
30647;SDS011;17683;53.360;9.736;2023-03-01T08:59:47;10.85;;;5.25;;
30647;SDS011;17683;53.360;9.736;2023-03-01T09:02:14;8.63;;;4.93;;
30647;SDS011;17683;53.360;9.736;2023-03-01T09:04:42;10.13;;;4.88;;
30647;SDS011;17683;53.360;9.736;2023-03-01T09:07:09;7.38;;;5.10;;
30647;SDS011;17683;53.360;9.736;2023-03-01T09:09:35;7.03;;;5.35;;
30647;SDS011;17683;53.360;9.736;2023-03-01T09:12:02;9.60;;;5.60;;
30647;SDS011;17683;53.360;9.736;2023-03-01T09:14:28;8.85;;;5.55;;
30647;SDS011;17683;53.360;9.736;2023-03-01T09:16:54;12.05;;;5.82;;
30647;SDS011;17683;53.360;9.736;2023-03-01T09:19:20;8.10;;;5.07;;
30647;SDS011;17683;53.360;9.736;2023-03-01T09:21:45;8.95;;;5.22;;
30647;SDS011;17683;53.360;9.736;2023-03-01T09:24:18;7.43;;;5.18;;
30647;SDS011;17683;53.360;9.736;2023-03-01T09:26:45;11.40;;;5.03;;
30647;SDS011;17683;53.360;9.736;2023-03-01T09:29:12;9.18;;;4.90;;
30647;SDS011;17683;53.360;9.736;2023-03-01T09:31:39;9.10;;;5.43;;
30647;SDS011;17683;53.360;9.736;2023-03-01T09:34:05;8.00;;;4.75;;
30647;SDS011;17683;53.360;9.736;2023-03-01T09:36:31;8.70;;;5.80;;
30647;SDS011;17683;53.360;9.736;2023-03-01T09:38:58;10.70;;;5.97;;
30647;SDS011;17683;53.360;9.736;2023-03-01T09:44:03;9.77;;;6.10;;
30647;SDS011;17683;53.360;9.736;2023-03-01T09:46:36;9.40;;;6.40;;
30647;SDS011;17683;53.360;9.736;2023-03-01T09:49:17;13.57;;;6.57;;
30647;SDS011;17683;53.360;9.736;2023-03-01T09:51:56;12.75;;;7.15;;
30647;SDS011;17683;53.360;9.736;2023-03-01T09:54:38;20.27;;;6.53;;
30647;SDS011;17683;53.360;9.736;2023-03-01T09:57:06;10.57;;;6.68;;
30647;SDS011;17683;53.360;9.736;2023-03-01T10:05:02;7.78;;;5.65;;
30647;SDS011;17683;53.360;9.736;2023-03-01T10:12:58;11.60;;;6.25;;
30647;SDS011;17683;53.360;9.736;2023-03-01T10:15:40;12.70;;;7.32;;
30647;SDS011;17683;53.360;9.736;2023-03-01T10:18:18;10.10;;;7.05;;
30647;SDS011;17683;53.360;9.736;2023-03-01T10:21:29;10.77;;;7.22;;
30647;SDS011;17683;53.360;9.736;2023-03-01T10:23:41;10.07;;;6.55;;
30647;SDS011;17683;53.360;9.736;2023-03-01T10:31:14;9.68;;;6.57;;
30647;SDS011;17683;53.360;9.736;2023-03-01T10:33:48;13.18;;;6.68;;
30647;SDS011;17683;53.360;9.736;2023-03-01T10:36:18;13.52;;;6.28;;
30647;SDS011;17683;53.360;9.736;2023-03-01T10:38:51;9.38;;;6.70;;
30647;SDS011;17683;53.360;9.736;2023-03-01T10:41:20;8.82;;;6.50;;
30647;SDS011;17683;53.360;9.736;2023-03-01T10:46:26;9.85;;;6.88;;
30647;SDS011;17683;53.360;9.736;2023-03-01T10:49:07;11.10;;;7.10;;
30647;SDS011;17683;53.360;9.736;2023-03-01T10:51:36;11.73;;;7.30;;
30647;SDS011;17683;53.360;9.736;2023-03-01T10:54:04;15.57;;;8.13;;
30647;SDS011;17683;53.360;9.736;2023-03-01T10:56:50;10.25;;;6.90;;
30647;SDS011;17683;53.360;9.736;2023-03-01T10:59:28;10.18;;;8.10;;
30647;SDS011;17683;53.360;9.736;2023-03-01T11:02:09;14.15;;;8.63;;
30647;SDS011;17683;53.360;9.736;2023-03-01T11:04:57;13.75;;;8.60;;
30647;SDS011;17683;53.360;9.736;2023-03-01T11:07:23;15.20;;;9.38;;
30647;SDS011;17683;53.360;9.736;2023-03-01T11:09:49;14.45;;;10.15;;
30647;SDS011;17683;53.360;9.736;2023-03-01T11:12:15;12.98;;;9.02;;
30647;SDS011;17683;53.360;9.736;2023-03-01T11:14:48;13.43;;;9.73;;
30647;SDS011;17683;53.360;9.736;2023-03-01T11:17:24;21.85;;;10.13;;
30647;SDS011;17683;53.360;9.736;2023-03-01T11:22:39;15.03;;;10.60;;
30647;SDS011;17683;53.360;9.736;2023-03-01T11:25:31;16.70;;;10.82;;
30647;SDS011;17683;53.360;9.736;2023-03-01T11:28:01;17.55;;;11.95;;
30647;SDS011;17683;53.360;9.736;2023-03-01T11:33:37;18.77;;;12.45;;
30647;SDS011;17683;53.360;9.736;2023-03-01T11:36:33;19.60;;;13.27;;
30647;SDS011;17683;53.360;9.736;2023-03-01T11:39:17;19.15;;;13.30;;
30647;SDS011;17683;53.360;9.736;2023-03-01T11:42:05;17.88;;;12.15;;
30647;SDS011;17683;53.360;9.736;2023-03-01T11:44:40;15.43;;;10.57;;
30647;SDS011;17683;53.360;9.736;2023-03-01T11:49:59;12.45;;;7.53;;
30647;SDS011;17683;53.360;9.736;2023-03-01T11:55:42;9.63;;;6.50;;
30647;SDS011;17683;53.360;9.736;2023-03-01T12:00:42;12.63;;;8.05;;
30647;SDS011;17683;53.360;9.736;2023-03-01T12:03:33;11.77;;;7.93;;
30647;SDS011;17683;53.360;9.736;2023-03-01T12:25:46;10.13;;;6.75;;
30647;SDS011;17683;53.360;9.736;2023-03-01T12:41:54;12.63;;;7.60;;
30647;SDS011;17683;53.360;9.736;2023-03-01T12:50:23;11.43;;;8.10;;
30647;SDS011;17683;53.360;9.736;2023-03-01T12:52:53;12.52;;;8.35;;
30647;SDS011;17683;53.360;9.736;2023-03-01T12:55:29;12.07;;;8.35;;
30647;SDS011;17683;53.360;9.736;2023-03-01T13:00:38;13.48;;;9.57;;
30647;SDS011;17683;53.360;9.736;2023-03-01T13:08:55;18.58;;;10.30;;
30647;SDS011;17683;53.360;9.736;2023-03-01T13:11:27;16.52;;;10.20;;
30647;SDS011;17683;53.360;9.736;2023-03-01T13:14:20;15.80;;;9.82;;
30647;SDS011;17683;53.360;9.736;2023-03-01T13:16:45;12.65;;;9.68;;
30647;SDS011;17683;53.360;9.736;2023-03-01T13:19:21;14.98;;;10.10;;
30647;SDS011;17683;53.360;9.736;2023-03-01T13:21:50;14.43;;;10.50;;
30647;SDS011;17683;53.360;9.736;2023-03-01T13:29:31;15.68;;;9.98;;
30647;SDS011;17683;53.360;9.736;2023-03-01T13:32:23;17.02;;;10.52;;
30647;SDS011;17683;53.360;9.736;2023-03-01T13:37:29;14.05;;;9.77;;
30647;SDS011;17683;53.360;9.736;2023-03-01T13:40:04;16.00;;;9.80;;
30647;SDS011;17683;53.360;9.736;2023-03-01T13:42:53;14.27;;;9.60;;
30647;SDS011;17683;53.360;9.736;2023-03-01T13:45:21;12.80;;;9.32;;
30647;SDS011;17683;53.360;9.736;2023-03-01T13:47:52;15.23;;;9.50;;
30647;SDS011;17683;53.360;9.736;2023-03-01T13:50:33;12.18;;;8.63;;
30647;SDS011;17683;53.360;9.736;2023-03-01T13:53:09;14.18;;;9.35;;
30647;SDS011;17683;53.360;9.736;2023-03-01T13:55:41;12.77;;;9.18;;
30647;SDS011;17683;53.360;9.736;2023-03-01T13:58:23;16.23;;;9.48;;
30647;SDS011;17683;53.360;9.736;2023-03-01T14:01:07;13.15;;;9.25;;
30647;SDS011;17683;53.360;9.736;2023-03-01T14:03:45;14.57;;;8.88;;
30647;SDS011;17683;53.360;9.736;2023-03-01T14:06:15;15.48;;;8.98;;
30647;SDS011;17683;53.360;9.736;2023-03-01T14:08:45;17.08;;;9.52;;
30647;SDS011;17683;53.360;9.736;2023-03-01T14:19:37;14.43;;;8.68;;
30647;SDS011;17683;53.360;9.736;2023-03-01T14:24:38;16.95;;;10.55;;
30647;SDS011;17683;53.360;9.736;2023-03-01T14:27:11;16.83;;;10.20;;
30647;SDS011;17683;53.360;9.736;2023-03-01T14:29:38;19.20;;;10.60;;
30647;SDS011;17683;53.360;9.736;2023-03-01T14:32:12;27.05;;;11.95;;
30647;SDS011;17683;53.360;9.736;2023-03-01T14:34:45;19.60;;;11.80;;
30647;SDS011;17683;53.360;9.736;2023-03-01T14:40:00;22.13;;;11.68;;
30647;SDS011;17683;53.360;9.736;2023-03-01T14:42:45;18.38;;;11.60;;
30647;SDS011;17683;53.360;9.736;2023-03-01T14:45:11;19.50;;;10.13;;
30647;SDS011;17683;53.360;9.736;2023-03-01T14:47:38;17.23;;;10.25;;
30647;SDS011;17683;53.360;9.736;2023-03-01T14:50:09;21.15;;;12.02;;
30647;SDS011;17683;53.360;9.736;2023-03-01T14:52:38;22.55;;;12.43;;
30647;SDS011;17683;53.360;9.736;2023-03-01T14:55:09;20.92;;;11.82;;
30647;SDS011;17683;53.360;9.736;2023-03-01T14:57:49;20.35;;;11.88;;
30647;SDS011;17683;53.360;9.736;2023-03-01T15:00:17;18.05;;;11.82;;
30647;SDS011;17683;53.360;9.736;2023-03-01T15:02:47;19.73;;;11.25;;
30647;SDS011;17683;53.360;9.736;2023-03-01T15:05:14;21.70;;;11.73;;
30647;SDS011;17683;53.360;9.736;2023-03-01T15:07:43;23.08;;;12.43;;
30647;SDS011;17683;53.360;9.736;2023-03-01T15:10:30;21.27;;;13.00;;
30647;SDS011;17683;53.360;9.736;2023-03-01T15:13:42;19.90;;;12.32;;
30647;SDS011;17683;53.360;9.736;2023-03-01T15:15:47;22.02;;;12.32;;
30647;SDS011;17683;53.360;9.736;2023-03-01T15:18:27;20.13;;;12.90;;
30647;SDS011;17683;53.360;9.736;2023-03-01T15:20:54;25.52;;;13.25;;
30647;SDS011;17683;53.360;9.736;2023-03-01T15:23:29;27.75;;;13.23;;
30647;SDS011;17683;53.360;9.736;2023-03-01T15:25:56;20.30;;;12.40;;
30647;SDS011;17683;53.360;9.736;2023-03-01T15:31:24;19.17;;;11.75;;
30647;SDS011;17683;53.360;9.736;2023-03-01T15:36:55;22.65;;;12.63;;
30647;SDS011;17683;53.360;9.736;2023-03-01T15:42:02;23.55;;;12.52;;
30647;SDS011;17683;53.360;9.736;2023-03-01T15:45:06;24.63;;;13.18;;
30647;SDS011;17683;53.360;9.736;2023-03-01T15:47:33;21.92;;;12.52;;
30647;SDS011;17683;53.360;9.736;2023-03-01T15:50:01;22.15;;;12.80;;
30647;SDS011;17683;53.360;9.736;2023-03-01T15:52:39;25.60;;;14.10;;
30647;SDS011;17683;53.360;9.736;2023-03-01T15:55:14;23.50;;;15.20;;
30647;SDS011;17683;53.360;9.736;2023-03-01T15:57:40;25.25;;;14.50;;
30647;SDS011;17683;53.360;9.736;2023-03-01T16:00:08;30.08;;;15.65;;
30647;SDS011;17683;53.360;9.736;2023-03-01T16:02:38;31.10;;;15.38;;
30647;SDS011;17683;53.360;9.736;2023-03-01T16:05:18;29.15;;;15.35;;
30647;SDS011;17683;53.360;9.736;2023-03-01T16:07:48;25.35;;;14.68;;
30647;SDS011;17683;53.360;9.736;2023-03-01T16:10:13;23.63;;;14.00;;
30647;SDS011;17683;53.360;9.736;2023-03-01T16:12:39;25.00;;;14.35;;
30647;SDS011;17683;53.360;9.736;2023-03-01T16:15:11;22.52;;;12.45;;
30647;SDS011;17683;53.360;9.736;2023-03-01T16:17:41;26.85;;;13.73;;
30647;SDS011;17683;53.360;9.736;2023-03-01T16:20:07;25.65;;;14.32;;
30647;SDS011;17683;53.360;9.736;2023-03-01T16:22:34;27.10;;;15.35;;
30647;SDS011;17683;53.360;9.736;2023-03-01T16:24:59;23.50;;;13.15;;
30647;SDS011;17683;53.360;9.736;2023-03-01T16:27:25;27.20;;;14.55;;
30647;SDS011;17683;53.360;9.736;2023-03-01T16:29:51;29.45;;;14.05;;
30647;SDS011;17683;53.360;9.736;2023-03-01T16:32:16;28.38;;;15.02;;
30647;SDS011;17683;53.360;9.736;2023-03-01T16:34:42;24.17;;;14.20;;
30647;SDS011;17683;53.360;9.736;2023-03-01T16:37:08;28.10;;;14.98;;
30647;SDS011;17683;53.360;9.736;2023-03-01T16:39:34;27.33;;;14.85;;
30647;SDS011;17683;53.360;9.736;2023-03-01T16:42:02;27.73;;;14.70;;
30647;SDS011;17683;53.360;9.736;2023-03-01T16:44:28;25.45;;;14.20;;
30647;SDS011;17683;53.360;9.736;2023-03-01T16:46:54;29.05;;;15.10;;
30647;SDS011;17683;53.360;9.736;2023-03-01T16:49:20;26.13;;;15.15;;
30647;SDS011;17683;53.360;9.736;2023-03-01T16:51:45;22.73;;;14.32;;
30647;SDS011;17683;53.360;9.736;2023-03-01T16:54:11;26.90;;;17.05;;
30647;SDS011;17683;53.360;9.736;2023-03-01T16:56:37;25.15;;;15.15;;
30647;SDS011;17683;53.360;9.736;2023-03-01T16:59:04;24.83;;;14.48;;
30647;SDS011;17683;53.360;9.736;2023-03-01T17:01:30;26.77;;;15.75;;